Latest Weather Observations for Lucinda

IDQ60801

Issued at 4:35 pm EST Wednesday 23 April 2014 (issued every 30 minutes, with the page automatically refreshed every 10 minutes)

About weather observations | Map of weather stations | Latest weather observations for QLD | Other Formats
Station Details ID: 032141 Name: LUCINDA POINT Lat: -18.52 Lon: 146.39 Height: 10.0 m
Data from the previous 72 hours. | See also: Recent months for locations in Queensland
Date/Time
EST
Temp
°C
App
Temp
°C
Dew
Point
Rel
Hum
%
Delta-T
°C
Wind Press
QNH
hPa
Press
MSL
hPa
Rain
since 9 am
mm
Dir
 
Spd
km/h
Gust
km/h
Spd
kts
Gust
kts
23/04:30pm 26.7 27.4 20.5 69 4.1 SSE 17 22 9 12 1011.3 - 0.0
23/04:00pm 26.7 25.9 20.1 67 4.3 SE 24 30 13 16 1011.2 - 0.0
23/03:30pm 26.6 26.0 20.4 69 4.1 ESE 24 28 13 15 1011.1 - 0.0
23/03:00pm 26.6 26.7 20.4 69 4.1 SSE 20 28 11 15 1011.5 1011.4 0.0
23/02:30pm 26.5 25.3 20.1 68 4.2 SSE 26 32 14 17 1011.6 - 0.0
23/02:00pm 26.4 25.3 20.3 69 4.0 SSE 26 33 14 18 1011.8 - 0.0
23/01:30pm 26.4 26.2 20.5 70 3.9 SSE 22 28 12 15 1012.0 - 0.0
23/01:00pm 26.2 25.9 20.3 70 3.9 SSE 22 32 12 17 1012.5 - 0.0
23/12:30pm 26.0 24.4 20.1 70 3.8 SSE 28 32 15 17 1013.1 - 0.0
23/12:00pm 25.6 24.5 20.2 72 3.5 SSE 26 33 14 18 1013.8 1013.7 0.0
23/11:30am 25.8 25.2 20.6 73 3.4 SSE 24 30 13 16 1014.2 - 0.0
23/11:00am 25.6 24.3 19.9 70 3.7 SSE 26 32 14 17 1014.6 - 0.0
23/10:30am 25.5 23.8 19.9 71 3.6 SSE 28 35 15 19 1014.4 - 0.0
23/10:00am 25.7 24.4 19.8 70 3.8 SSE 26 33 14 18 1014.7 - 0.0
23/09:30am 25.4 23.7 19.8 71 3.6 SSE 28 33 15 18 1014.6 - 0.0
23/09:00am 25.4 23.4 20.0 72 3.5 SSE 30 35 16 19 1014.6 1014.5 0.0
23/08:30am 25.3 24.1 20.1 73 3.4 SSE 26 33 14 18 1014.4 - 0.0
23/08:00am 25.3 24.2 20.3 74 3.3 SSE 26 32 14 17 1014.1 - 0.0
23/07:30am 25.1 23.9 20.1 74 3.2 S 26 30 14 16 1014.0 - 0.0
23/07:00am 25.1 24.8 20.4 75 3.1 S 22 32 12 17 1013.7 - 0.0
23/06:30am 25.1 25.1 20.1 74 3.2 S 20 26 11 14 1013.5 - 0.0
23/06:00am 25.1 25.1 20.1 74 3.2 SSE 20 28 11 15 1013.2 1013.1 0.0
23/05:30am 25.0 24.3 19.6 72 3.5 S 22 28 12 15 1013.0 - 0.0
23/05:00am 25.0 24.7 19.6 72 3.5 S 20 28 11 15 1012.8 - 0.0
23/04:30am 25.0 24.3 19.4 71 3.6 SSE 22 30 12 16 1013.0 - 0.0
23/04:00am 25.0 24.1 19.8 73 3.4 S 24 32 13 17 1013.0 - 0.0
23/03:30am 24.9 23.9 19.7 73 3.4 S 24 30 13 16 1013.0 - 0.0
23/03:00am 25.2 24.1 20.2 74 3.3 SSE 26 32 14 17 1013.2 1013.1 0.0
23/02:30am 25.6 26.0 19.9 70 3.7 SSE 17 26 9 14 1013.4 - 0.0
23/02:00am 25.6 25.7 19.9 70 3.7 SSE 19 24 10 13 1013.6 - 0.0
23/01:30am 25.6 26.2 20.2 72 3.5 SSE 17 24 9 13 1014.0 - 0.0
23/01:00am 25.8 25.9 20.4 72 3.5 SE 20 28 11 15 1014.4 - 0.0
23/12:30am 25.8 26.1 20.4 72 3.5 SE 19 26 10 14 1014.8 - 0.0
23/12:00am 25.8 25.8 20.1 71 3.7 SE 20 26 11 14 1015.0 1014.9 0.0
 
Date/Time
EST
Temp
°C
App
Temp
°C
Dew
Point
Rel
Hum
%
Delta-T
°C
Wind Press
QNH
hPa
Press
MSL
hPa
Rain
since 9 am
mm
Dir
 
Spd
km/h
Gust
km/h
Spd
kts
Gust
kts
22/11:30pm 25.8 25.4 20.1 71 3.7 SE 22 32 12 17 1015.1 - 0.0
22/11:00pm 25.9 25.6 19.5 68 4.1 SE 20 30 11 16 1015.1 - 0.0
22/10:30pm 25.9 25.3 19.8 69 4.0 SE 22 28 12 15 1015.3 - 0.0
22/10:00pm 25.9 25.7 20.5 72 3.5 SE 22 30 12 16 1015.5 - 0.0
22/09:30pm 25.8 24.9 19.9 70 3.8 SE 24 30 13 16 1015.7 - 0.0
22/09:00pm 25.7 24.8 19.8 70 3.8 SE 24 32 13 17 1015.7 1015.6 0.0
22/08:30pm 25.7 24.7 19.6 69 3.9 SSE 24 30 13 16 1015.7 - 0.0
22/08:00pm 25.7 24.4 19.8 70 3.8 SE 26 32 14 17 1015.5 - 0.0
22/07:30pm 25.7 24.9 20.0 71 3.7 SE 24 32 13 17 1015.2 - 0.0
22/07:00pm 25.6 24.6 19.7 70 3.8 SE 24 30 13 16 1015.0 - 0.0
22/06:30pm 25.7 24.4 19.8 70 3.8 SE 26 32 14 17 1014.8 - 0.0
22/06:00pm 25.7 24.9 19.3 67 4.1 SE 22 32 12 17 1014.7 1014.6 0.0
22/05:30pm 25.7 25.5 19.8 70 3.8 SE 20 32 11 17 1014.4 - 0.0
22/05:00pm 25.7 24.7 19.6 69 3.9 SE 24 30 13 16 1014.3 - 0.0
22/04:30pm 25.9 25.4 19.1 66 4.4 SE 20 32 11 17 1014.2 - 0.0
22/04:00pm 26.1 25.3 19.2 65 4.4 SE 22 30 12 16 1014.2 - 0.0
22/03:30pm 26.1 26.2 19.2 65 4.4 SE 17 26 9 14 1014.1 - 0.0
22/03:00pm 26.2 26.5 19.6 67 4.3 SE 17 26 9 14 1014.2 1014.1 0.0
22/02:30pm 25.9 26.1 19.3 67 4.2 SSE 17 22 9 12 1014.2 - 0.0
22/02:00pm 25.8 25.3 19.2 67 4.2 SE 20 26 11 14 1014.5 - 0.0
22/01:30pm 26.0 25.4 18.4 63 4.8 SE 19 28 10 15 1014.8 - 0.0
22/01:00pm 26.3 25.8 18.7 63 4.9 SE 19 26 10 14 1015.1 - 0.0
22/12:30pm 26.5 26.1 18.1 60 5.3 SE 17 26 9 14 1015.3 - 0.0
22/12:00pm 26.2 25.4 18.1 61 5.1 SE 19 26 10 14 1015.8 1015.7 0.0
22/11:30am 27.1 26.8 16.4 52 6.6 E 13 24 7 13 1016.2 - 0.0
22/11:00am 26.9 27.0 17.4 56 6.0 ESE 13 24 7 13 1016.7 - 0.0
22/10:30am 26.5 26.5 18.1 60 5.3 ESE 15 24 8 13 1017.1 - 0.0
22/10:00am 26.5 26.4 17.8 58 5.5 ESE 15 24 8 13 1017.0 - 0.0
22/09:30am 26.5 26.1 18.1 60 5.3 ESE 17 24 9 13 1017.0 - 0.0
22/09:00am 26.6 26.3 17.4 57 5.8 ESE 15 24 8 13 1016.8 1016.7 0.0
22/08:30am 26.5 26.8 17.8 58 5.5 ESE 13 22 7 12 1016.6 - 0.0
22/08:00am 26.4 26.2 17.5 58 5.6 E 15 26 8 14 1016.4 - 0.0
22/07:30am 26.3 26.2 17.9 60 5.3 ESE 15 24 8 13 1016.2 - 0.0
22/07:00am 26.0 25.8 18.4 63 4.8 E 17 30 9 16 1015.9 - 0.0
22/06:30am 26.1 26.8 18.8 64 4.7 ESE 13 22 7 12 1015.6 - 0.0
22/06:00am 26.1 27.4 19.2 65 4.4 ESE 11 22 6 12 1015.3 1015.2 0.0
22/05:30am 26.2 26.8 17.6 59 5.4 ESE 11 22 6 12 1015.2 - 0.0
22/05:00am 26.1 26.1 17.2 58 5.5 ESE 13 20 7 11 1014.8 - 0.0
22/04:30am 26.2 26.4 17.6 59 5.4 E 13 28 7 15 1014.8 - 0.0
22/04:00am 26.1 26.7 17.7 60 5.3 ESE 11 22 6 12 1014.7 - 0.0
22/03:30am 26.1 26.7 17.7 60 5.3 ESE 11 20 6 11 1014.8 - 0.0
22/03:00am 26.2 26.5 17.8 60 5.3 E 13 28 7 15 1014.8 1014.7 0.0
22/02:30am 26.1 26.4 18.0 61 5.1 ESE 13 24 7 13 1015.1 - 0.0
22/02:00am 26.2 26.0 17.6 59 5.4 ESE 15 24 8 13 1015.3 - 0.0
22/01:30am 26.2 26.2 18.1 61 5.1 ESE 15 24 8 13 1015.5 - 0.0
22/01:00am 26.3 26.2 17.9 60 5.3 ESE 15 28 8 15 1016.0 - 0.0
22/12:30am 26.3 27.6 18.4 61 5.0 SSE 9 19 5 10 1016.3 - 0.0
22/12:00am 26.4 26.7 18.0 60 5.3 E 13 26 7 14 1016.5 1016.4 0.0
 
Date/Time
EST
Temp
°C
App
Temp
°C
Dew
Point
Rel
Hum
%
Delta-T
°C
Wind Press
QNH
hPa
Press
MSL
hPa
Rain
since 9 am
mm
Dir
 
Spd
km/h
Gust
km/h
Spd
kts
Gust
kts
21/11:30pm 26.4 27.3 18.5 62 5.0 ESE 11 22 6 12 1016.4 - 0.0
21/11:00pm 26.5 27.1 18.6 62 5.0 ESE 13 20 7 11 1016.4 - 0.0
21/10:30pm 26.5 27.4 18.4 61 5.2 SE 11 24 6 13 1016.6 - 0.0
21/10:00pm 26.6 26.8 17.7 58 5.6 ESE 13 22 7 12 1016.6 - 0.0
21/09:30pm 26.5 27.4 18.4 61 5.2 SE 11 24 6 13 1016.6 - 0.0
21/09:00pm 26.5 27.3 18.1 60 5.3 ESE 11 20 6 11 1016.5 1016.4 0.0
21/08:30pm 26.5 26.8 17.8 58 5.5 SE 13 20 7 11 1016.6 - 0.0
21/08:00pm 26.4 26.2 17.7 58 5.5 E 15 26 8 14 1016.4 - 0.0
21/07:30pm 26.4 26.5 18.3 61 5.1 E 15 22 8 12 1016.2 - 0.0
21/07:00pm 26.3 27.2 18.4 61 5.0 SE 11 20 6 11 1015.9 - 0.0
21/06:30pm 26.3 26.6 18.7 63 4.9 E 15 24 8 13 1015.7 - 0.0
21/06:00pm 26.3 26.4 18.4 61 5.0 ESE 15 24 8 13 1015.4 1015.3 0.0
21/05:30pm 26.3 26.6 18.7 63 4.9 ESE 15 24 8 13 1015.2 - 0.0
21/05:00pm 26.4 26.7 18.0 60 5.3 E 13 22 7 12 1014.9 - 0.0
21/04:30pm 26.4 26.7 18.0 60 5.3 ESE 13 22 7 12 1014.6 - 0.0
21/04:00pm 26.5 27.1 18.6 62 5.0 ESE 13 26 7 14 1014.4 - 0.0
21/03:30pm 26.6 26.9 17.9 59 5.5 E 13 22 7 12 1014.4 - 0.0
21/03:00pm 26.5 26.5 18.1 60 5.3 ESE 15 24 8 13 1014.5 1014.4 0.0
21/02:30pm 27.1 27.5 18.1 58 5.7 ESE 13 20 7 11 1014.4 - 0.0
21/02:00pm 27.3 27.8 18.3 58 5.7 SE 13 24 7 13 1014.4 - 0.0
21/01:30pm 27.8 28.6 18.2 56 6.1 ESE 11 22 6 12 1014.7 - 0.0
21/01:00pm 27.7 28.2 17.5 53 6.4 ESE 11 20 6 11 1014.9 - 0.0
21/12:30pm 27.3 27.6 17.8 56 6.0 ESE 13 32 7 17 1015.5 - 0.0
21/12:00pm 27.0 27.6 17.8 57 5.8 ESE 11 19 6 10 1015.6 1015.5 0.0
21/11:30am 26.5 27.1 18.6 62 5.0 ESE 13 22 7 12 1016.1 - 0.0
21/11:00am 27.1 27.3 17.6 56 6.0 E 13 22 7 12 1016.5 - 0.0
21/10:30am 26.4 24.2 16.9 56 5.9 ESE 24 35 13 19 1016.7 - 0.0
21/10:00am 26.6 24.4 15.9 51 6.6 ESE 22 33 12 18 1016.7 - 0.0
21/09:30am 26.6 25.0 16.5 54 6.2 ESE 20 33 11 18 1016.6 - 0.0
21/09:00am 26.7 25.2 16.3 53 6.4 ESE 19 37 10 20 1016.5 1016.4 0.0
21/08:30am 26.4 24.6 15.4 50 6.7 ESE 19 37 10 20 1016.3 - 0.0
21/08:08am 26.9 23.9 16.8 54 6.3 E 28 46 15 25 1016.1 - 0.0
21/08:00am 27.1 26.0 17.3 55 6.1 E 19 39 10 21 1016.1 - 0.0
21/07:31am 26.3 23.7 17.9 60 5.3 ESE 28 46 15 25 1015.7 - 0.0
21/07:30am 26.3 24.0 17.6 58 5.5 ESE 26 46 14 25 1015.7 - 0.0
21/07:16am 26.1 23.3 17.2 58 5.5 ESE 28 46 15 25 1015.6 - 0.0
21/07:00am 25.8 24.1 18.0 62 4.9 ESE 24 46 13 25 1015.5 - 0.0
21/06:30am 24.5 23.1 18.9 71 3.6 SE 24 41 13 22 1015.3 - 0.0
21/06:17am 23.9 21.8 19.0 74 3.1 SE 28 46 15 25 1015.2 - 0.0
21/06:00am 25.4 23.4 18.3 65 4.5 ESE 26 43 14 23 1014.8 1014.7 0.0
21/05:30am 25.8 24.8 18.0 62 4.9 SSE 20 41 11 22 1014.7 - 0.0
21/05:14am 25.9 23.2 17.5 59 5.3 ESE 28 46 15 25 1014.6 - 0.0
21/05:00am 25.9 23.4 18.1 62 4.9 SE 28 44 15 24 1014.5 - 0.0
21/04:39am 25.9 23.5 18.3 63 4.8 SE 28 46 15 25 1014.2 - 0.0
21/04:30am 25.8 22.9 18.0 62 4.9 SE 30 44 16 24 1014.2 - 0.0
21/04:01am 25.9 23.3 17.8 61 5.1 SE 28 46 15 25 1014.0 - 0.0
21/04:00am 25.9 22.8 17.5 59 5.3 SE 30 44 16 24 1014.0 - 0.0
21/03:30am 25.9 24.1 17.8 61 5.1 SE 24 41 13 22 1014.0 - 0.0
21/03:21am 25.8 23.5 18.5 64 4.6 ESE 28 46 15 25 1014.0 - 0.0
21/03:00am 25.8 23.0 18.2 63 4.8 SE 30 46 16 25 1014.0 1013.9 0.0
21/02:53am 25.8 23.2 17.7 61 5.1 ESE 28 46 15 25 1014.0 - 0.0
21/02:30am 25.9 22.8 18.3 63 4.8 ESE 32 46 17 25 1014.0 - 0.0
21/02:13am 25.8 23.2 17.7 61 5.1 ESE 28 46 15 25 1014.1 - 0.0
21/02:00am 25.9 23.4 18.1 62 4.9 SE 28 44 15 24 1014.1 - 0.0
21/01:30am 25.9 23.6 17.5 59 5.3 SE 26 41 14 22 1014.4 - 0.0
21/01:00am 26.0 24.6 17.9 61 5.1 ESE 22 37 12 20 1014.6 - 0.0
21/12:30am 25.9 24.6 18.1 62 4.9 ESE 22 39 12 21 1015.0 - 0.0
21/12:00am 25.9 24.7 18.3 63 4.8 SE 22 37 12 20 1015.3 1015.2 0.0
 
Date/Time
EST
Temp
°C
App
Temp
°C
Dew
Point
Rel
Hum
%
Delta-T
°C
Wind Press
QNH
hPa
Press
MSL
hPa
Rain
since 9 am
mm
Dir
 
Spd
km/h
Gust
km/h
Spd
kts
Gust
kts
20/11:30pm 26.1 24.7 18.0 61 5.1 SE 22 39 12 21 1015.6 - 0.0
20/11:00pm 25.9 24.6 17.3 59 5.4 SE 20 30 11 16 1015.9 - 0.0
20/10:30pm 26.0 24.7 16.8 57 5.7 SE 19 30 10 16 1016.0 - 0.0
20/10:00pm 25.9 25.1 17.0 58 5.5 SE 17 26 9 14 1016.2 - 0.0
20/09:30pm 25.9 24.7 17.0 58 5.5 SE 19 32 10 17 1016.3 - 0.0
20/09:00pm 25.7 26.5 18.1 63 4.8 SE 11 20 6 11 1016.3 1016.2 0.0
20/08:30pm 25.7 26.6 17.6 61 5.1 S 9 15 5 8 1016.2 - 0.0
20/08:00pm 25.7 26.2 17.4 60 5.2 S 11 17 6 9 1016.0 - 0.0
20/07:30pm 25.8 25.6 16.6 56 5.7 SE 13 24 7 13 1015.7 - 0.0
20/07:00pm 25.9 24.9 16.7 57 5.7 SE 17 26 9 14 1015.2 - 0.0
20/06:30pm 25.9 24.7 16.2 55 6.0 SE 17 26 9 14 1015.1 - 0.0
20/06:00pm 26.0 25.9 16.0 54 6.1 SSE 11 19 6 10 1014.8 1014.7 0.0
20/05:30pm 26.4 25.7 15.4 50 6.7 SE 13 22 7 12 1014.7 - 0.0
20/05:00pm 26.6 25.7 15.9 51 6.6 ESE 15 22 8 12 1014.4 - 0.0

Other Formats:

Comma delimited format used in spreadsheet applications
http://www.bom.gov.au/fwo/IDQ60801/IDQ60801.94295.axf

JavaScript Object Notation format (JSON) in row-major order
http://www.bom.gov.au/fwo/IDQ60801/IDQ60801.94295.json